Jessica W — WDB8889 — position and weather

sailwx.info

Track history (hours):
 
Tides and Currents Weather Stations Pressure Air Temp Water Temp Dewpoint Dewpoint Depression Visibility Wind Speed Wind Dir Waves Ship Positions

Jessica W

Owner: Block Island Ferry Services LLc, New London, CT. More information available from US FCC via Universal Licensing System and Coast Guard Vessel Documentation Center.

Last reported at 2017-Sep-25 01:02 UTC. Time now 2017-Nov-24 02:10 UTC.
Position N 41°15' W 072°04'.
Warning: this ship's position is months out of date.

Length 50 m; draft 3 m.

Type: High speed craft. MMSI: 366965960.

Date/timePositionNaut miles runAvg speedWind from/ knotsBaromVisibWave heightAir tempDewpointWater temp
2017-Sep-25 01:02N 41°15' W 072°04'134.3
2017-Sep-25 01:00N 41°14' W 072°04'2 0.7
2017-Sep-24 21:51N 41°14' W 072°01'1 0.1
2017-Sep-24 00:57N 41°14' W 071°59'1533.7
2017-Sep-24 00:30N 41°15' W 071°39'612.0
2017-Sep-23 23:59N 41°10' W 071°33'  
2017-Sep-17 01:18N 41°20' W 072°05'924.2
2017-Sep-17 00:57N 41°14' W 071°58'1733.6
2017-Sep-17 00:27N 41°16' W 071°36'5 7.2
2017-Sep-16 23:42N 41°11' W 071°33'529.5
2017-Sep-16 23:31N 41°16' W 071°35'1734.1
2017-Sep-16 23:01N 41°14' W 071°57'8 8.5
2017-Sep-16 22:04N 41°20' W 072°05'115.9
2017-Sep-16 21:59N 41°19' W 072°05'1833.8
2017-Sep-16 21:26N 41°15' W 071°41'716.2
2017-Sep-16 21:00N 41°11' W 071°33'0 0.4
2017-Sep-16 20:30N 41°10' W 071°33'0 0.0
2017-Sep-16 20:00N 41°10' W 071°33'0 0.0
2017-Sep-16 19:30N 41°10' W 071°33'0 0.0
2017-Sep-16 19:00N 41°10' W 071°33'0 0.0
2017-Sep-16 18:21N 41°10' W 071°33'0 0.0
2017-Sep-16 18:00N 41°10' W 071°33'0 0.0
2017-Sep-16 17:30N 41°10' W 071°33'610.1
2017-Sep-16 16:57N 41°16' W 071°33'23 0.9
2017-Sep-15 14:23N 41°17' W 072°04'  
Track history (hours):
 
Tides and Currents Weather Stations Pressure Air Temp Water Temp Dewpoint Dewpoint Depression Visibility Wind Speed Wind Dir Waves Ship Positions

Jessica W

Owner: Block Island Ferry Services LLc, New London, CT. More information available from US FCC via Universal Licensing System and Coast Guard Vessel Documentation Center.

Last reported at 2017-Sep-25 01:02 UTC. Time now 2017-Nov-24 02:10 UTC.
Position N 41°15' W 072°04'.
Warning: this ship's position is months out of date.

Length 50 m; draft 3 m.

Type: High speed craft. MMSI: 366965960.

Date/timePositionNaut miles runAvg speedWind from/ knotsBaromVisibWave heightAir tempDewpointWater temp
2017-Sep-25 01:02N 41°15' W 072°04'134.3
2017-Sep-25 01:00N 41°14' W 072°04'2 0.7
2017-Sep-24 21:51N 41°14' W 072°01'1 0.1
2017-Sep-24 00:57N 41°14' W 071°59'1533.7
2017-Sep-24 00:30N 41°15' W 071°39'612.0
2017-Sep-23 23:59N 41°10' W 071°33'  
2017-Sep-17 01:18N 41°20' W 072°05'924.2
2017-Sep-17 00:57N 41°14' W 071°58'1733.6
2017-Sep-17 00:27N 41°16' W 071°36'5 7.2
2017-Sep-16 23:42N 41°11' W 071°33'529.5
2017-Sep-16 23:31N 41°16' W 071°35'1734.1
2017-Sep-16 23:01N 41°14' W 071°57'8 8.5
2017-Sep-16 22:04N 41°20' W 072°05'115.9
2017-Sep-16 21:59N 41°19' W 072°05'1833.8
2017-Sep-16 21:26N 41°15' W 071°41'716.2
2017-Sep-16 21:00N 41°11' W 071°33'0 0.4
2017-Sep-16 20:30N 41°10' W 071°33'0 0.0
2017-Sep-16 20:00N 41°10' W 071°33'0 0.0
2017-Sep-16 19:30N 41°10' W 071°33'0 0.0
2017-Sep-16 19:00N 41°10' W 071°33'0 0.0
2017-Sep-16 18:21N 41°10' W 071°33'0 0.0
2017-Sep-16 18:00N 41°10' W 071°33'0 0.0
2017-Sep-16 17:30N 41°10' W 071°33'610.1
2017-Sep-16 16:57N 41°16' W 071°33'23 0.9
2017-Sep-15 14:23N 41°17' W 072°04'  

Dump ship's entire track history